CheckWX is a tool to help pilots better visualize weather data.  It is not intended as a substitute for an official pre-flight weather briefing.

06:19:13 UTC

KMTJ METAR
Montrose Regional Airport
Montrose, Colorado, USA
Current

26 mins ago

KMTJ 080553Z AUTO 34003KT 10SM BKN049 OVC060 04/M01 A3012 RMK AO2 SLP183 T00391011 10067 20017 58008
Observed
Dec-8 @ 05:53 UTC
Wind
  • 340° at 3 KTS
Visibility
10 SM
Flight Rules
VFR
Cloud Levels
  • Broken at 4,900' AGL
  • Overcast at 6,000' AGL
Temperature
C / 39°F
Dewpoint
-1°C / 30°F
Humidity
70%
Altimeter
30.12" Hg
Pressure
1020.02 hPa
Previous

1 hour ago

KMTJ 080453Z AUTO 00000KT 10SM BKN050 OVC060 04/M02 A3014 RMK AO2 SLP193 T00391017
Observed
Dec-8 @ 04:53 UTC
Visibility
10 SM
Flight Rules
VFR
Cloud Levels
  • Broken at 5,000' AGL
  • Overcast at 6,000' AGL
Temperature
C / 39°F
Dewpoint
-2°C / 28°F
Humidity
65%
Altimeter
30.14" Hg
Pressure
1020.62 hPa
Previous

2 hours ago

KMTJ 080353Z AUTO 15004KT 10SM OVC060 03/M02 A3015 RMK AO2 SLP205 T00281017
Observed
Dec-8 @ 03:53 UTC
Wind
  • 150° at 4 KTS
Visibility
10 SM
Flight Rules
VFR
Cloud Levels
  • Overcast at 6,000' AGL
Temperature
C / 37°F
Dewpoint
-2°C / 28°F
Humidity
70%
Altimeter
30.15" Hg
Pressure
1021.02 hPa